Propria, Brazil
Current Conditions -  °F | °C
As of 5:00 PM on Tuesday 21 Oct 2014 (Local Time) from SBAR Reporting Station
Scattered Clouds Scattered Clouds  
Wind Chill: 81°   Ceiling: Unl
Heat Index: 83°   Visibility: 6mi
Dew Point: 68°   Wind: 12mph
Humidity: 65%   Direction: 120°ESE
Pressure: 29.94"   Gusts: NA
Location:  10.21°S, 36.85°W
Report Text: SBAR 212000Z 12010KT 9999 SCT018 27/20 Q1014
Loading
Personal Weather Stations






























Interactive Weather Map
Tropical Storm Tracking
New forecast layout! Learn more

10-Day Weather Forecast

Advertisements
Track Severe Weather on mobile